Time;durP1;ratioP1;P1;durP2;ratioP2;P2;SDS_P1;SDS_P2;PMS_P1;PMS_P2;Temp;Humidity;BMP_temperature;BMP_pressure;BME280_temperature;BME280_humidity;BME280_pressure;Samples;Min_cycle;Max_cycle;Signal;HPM_P1;HPM_P2
2023/12/05 00:00:39;;;;;;;11.20;5.78;;;0.30;99.90;;;;;;5095052;28;20040;-55
2023/12/05 00:03:05;;;;;;;13.00;6.10;;;0.30;99.90;;;;;;5094398;28;20139;-54
2023/12/05 00:05:31;;;;;;;12.77;6.50;;;0.30;99.90;;;;;;5094241;28;20048;-55
2023/12/05 00:07:56;;;;;;;13.40;6.47;;;0.20;99.90;;;;;;5093637;28;20482;-55
2023/12/05 00:10:22;;;;;;;15.00;7.15;;;0.20;99.90;;;;;;5094626;28;20048;-55
2023/12/05 00:12:48;;;;;;;12.50;6.40;;;0.20;99.90;;;;;;5093382;28;20122;-55
2023/12/05 00:15:13;;;;;;;12.52;6.38;;;0.20;99.90;;;;;;5094806;28;20051;-55
2023/12/05 00:17:39;;;;;;;14.05;7.05;;;0.20;99.90;;;;;;5095167;28;20040;-56
2023/12/05 00:20:06;;;;;;;10.85;5.72;;;0.20;99.90;;;;;;5094777;28;20101;-56
2023/12/05 00:22:31;;;;;;;14.15;6.80;;;0.10;99.90;;;;;;5094395;28;20536;-55
2023/12/05 00:24:57;;;;;;;12.95;6.20;;;0.10;99.90;;;;;;5094216;28;20044;-56
2023/12/05 00:27:23;;;;;;;13.13;6.55;;;0.10;99.90;;;;;;5094076;28;20054;-54
2023/12/05 00:29:48;;;;;;;12.90;6.35;;;0.10;99.90;;;;;;5094466;28;20040;-57
2023/12/05 00:32:15;;;;;;;13.43;6.80;;;0.10;99.90;;;;;;5094323;28;20453;-56
2023/12/05 00:34:42;;;;;;;13.77;7.22;;;0.10;99.90;;;;;;5093197;28;20040;-56
2023/12/05 00:37:08;;;;;;;14.55;7.85;;;0.10;99.90;;;;;;5094218;28;20079;-55
2023/12/05 00:39:34;;;;;;;13.07;6.85;;;0.10;99.90;;;;;;5094240;28;20087;-56
2023/12/05 00:41:59;;;;;;;15.70;7.55;;;0.00;99.90;;;;;;5094059;28;20074;-56
2023/12/05 00:44:25;;;;;;;14.85;7.90;;;0.10;99.90;;;;;;5094134;28;20151;-54
2023/12/05 00:46:50;;;;;;;14.50;8.13;;;0.00;99.90;;;;;;5093871;28;20071;-55
2023/12/05 00:49:16;;;;;;;14.13;7.43;;;0.00;99.90;;;;;;5093792;28;20088;-54
2023/12/05 00:51:42;;;;;;;17.00;8.05;;;0.10;99.90;;;;;;5076283;28;20145;-55
2023/12/05 00:54:07;;;;;;;15.05;7.32;;;0.10;99.90;;;;;;5094162;28;20474;-55
2023/12/05 00:56:33;;;;;;;14.43;7.63;;;0.00;99.90;;;;;;5093775;28;20554;-56
2023/12/05 00:58:59;;;;;;;15.77;7.55;;;0.10;99.90;;;;;;5094061;28;20096;-56
2023/12/05 01:01:24;;;;;;;16.42;8.18;;;0.10;99.90;;;;;;5093874;28;20089;-55
2023/12/05 01:03:56;;;;;;;17.52;8.50;;;0.10;99.90;;;;;;5093583;28;20135;-53
2023/12/05 01:06:22;;;;;;;16.30;8.15;;;0.10;99.90;;;;;;5093770;28;20055;-55
2023/12/05 01:08:48;;;;;;;15.13;8.00;;;0.10;99.90;;;;;;5093727;28;20044;-55
2023/12/05 01:11:14;;;;;;;17.13;9.27;;;0.10;99.90;;;;;;5093674;28;20052;-54
2023/12/05 01:13:40;;;;;;;17.67;8.70;;;0.10;99.90;;;;;;5093761;28;20528;-55
2023/12/05 01:16:06;;;;;;;16.70;8.63;;;0.20;99.90;;;;;;5092831;28;20040;-55
2023/12/05 01:18:32;;;;;;;18.60;8.98;;;0.10;99.90;;;;;;5093733;28;20087;-55
2023/12/05 01:20:57;;;;;;;16.23;7.95;;;0.10;99.90;;;;;;5093704;28;20044;-54
2023/12/05 01:23:23;;;;;;;18.33;9.20;;;0.20;99.90;;;;;;5093680;28;20081;-54
2023/12/05 01:25:49;;;;;;;19.75;8.90;;;0.20;99.90;;;;;;5093431;28;20051;-55
2023/12/05 01:28:14;;;;;;;15.60;8.30;;;0.20;99.90;;;;;;5093719;28;20048;-56
2023/12/05 01:30:41;;;;;;;17.70;8.98;;;0.20;99.90;;;;;;5093584;28;20072;-56
2023/12/05 01:33:07;;;;;;;17.45;8.45;;;0.20;99.90;;;;;;5093591;28;20040;-56
2023/12/05 01:35:33;;;;;;;17.83;8.60;;;0.10;99.90;;;;;;5093479;28;20052;-54
2023/12/05 01:37:58;;;;;;;18.05;9.20;;;0.20;99.90;;;;;;5092321;28;20048;-55
2023/12/05 01:40:24;;;;;;;18.83;8.93;;;0.20;99.90;;;;;;5093269;28;20093;-55
2023/12/05 01:42:50;;;;;;;15.40;8.48;;;0.10;99.90;;;;;;5092803;28;20066;-55
2023/12/05 01:45:15;;;;;;;17.52;8.95;;;0.20;99.90;;;;;;5093566;28;20066;-55
2023/12/05 01:47:41;;;;;;;16.10;7.80;;;0.20;99.90;;;;;;5093436;28;20487;-55
2023/12/05 01:50:11;;;;;;;14.10;7.68;;;0.20;99.90;;;;;;5093232;28;20051;-55
2023/12/05 01:52:45;;;;;;;17.98;9.13;;;0.20;99.90;;;;;;5093385;28;20052;-54
2023/12/05 01:55:10;;;;;;;14.68;7.88;;;0.20;99.90;;;;;;5093489;28;20514;-56
2023/12/05 01:57:36;;;;;;;15.88;8.43;;;0.20;99.90;;;;;;5093415;28;20087;-56
2023/12/05 02:00:06;;;;;;;15.75;8.55;;;0.10;99.90;;;;;;5092105;28;20514;-56
2023/12/05 02:02:32;;;;;;;15.60;8.10;;;0.20;99.90;;;;;;5094107;28;20051;-55
2023/12/05 02:04:58;;;;;;;15.95;7.95;;;0.10;99.90;;;;;;5095908;28;20044;-55
2023/12/05 02:07:24;;;;;;;15.52;8.15;;;0.20;99.90;;;;;;5096938;28;20048;-54
2023/12/05 02:09:50;;;;;;;16.08;8.63;;;0.20;99.90;;;;;;5096918;28;20130;-56
2023/12/05 02:12:16;;;;;;;15.90;8.93;;;0.20;99.90;;;;;;5097439;28;20135;-55
2023/12/05 02:14:42;;;;;;;15.43;8.23;;;0.20;99.90;;;;;;5097090;28;20043;-54
2023/12/05 02:17:20;;;;;;;17.15;9.18;;;0.20;99.90;;;;;;5097134;28;20044;-55
2023/12/05 02:20:06;;;;;;;18.08;8.85;;;0.30;99.90;;;;;;5096861;28;20584;-56
2023/12/05 02:23:15;;;;;;;17.20;8.48;;;0.10;99.90;;;;;;5096995;28;20059;-55
2023/12/05 02:25:46;;;;;;;16.10;8.57;;;0.20;99.90;;;;;;5097013;28;20051;-55
2023/12/05 02:28:12;;;;;;;15.68;9.07;;;0.20;99.90;;;;;;5096650;28;20044;-55
2023/12/05 02:30:38;;;;;;;15.77;8.38;;;0.20;99.90;;;;;;5096525;28;20482;-55
2023/12/05 02:33:04;;;;;;;16.05;8.40;;;0.20;99.90;;;;;;5096715;28;20048;-55
2023/12/05 02:35:30;;;;;;;15.55;8.27;;;0.10;99.90;;;;;;5096782;28;20083;-55
2023/12/05 02:38:21;;;;;;;15.27;8.37;;;0.20;99.90;;;;;;5096451;28;20047;-55
2023/12/05 02:41:11;;;;;;;16.90;9.27;;;0.20;99.90;;;;;;5096586;28;20135;-56
2023/12/05 02:43:44;;;;;;;20.23;8.60;;;0.10;99.90;;;;;;5095610;28;20040;-55
2023/12/05 02:46:11;;;;;;;19.08;9.32;;;0.10;99.90;;;;;;5096915;28;20103;-55
2023/12/05 02:48:38;;;;;;;17.58;9.35;;;0.20;99.90;;;;;;5096268;28;20044;-56
2023/12/05 02:51:04;;;;;;;17.95;9.55;;;0.20;99.90;;;;;;5096238;28;20510;-55
2023/12/05 02:53:29;;;;;;;17.10;9.70;;;0.10;99.90;;;;;;5095128;28;20086;-54
2023/12/05 02:55:55;;;;;;;18.88;11.07;;;0.20;99.90;;;;;;5096158;28;20048;-55
2023/12/05 02:58:21;;;;;;;16.02;9.13;;;0.20;99.90;;;;;;5096430;28;20043;-54
2023/12/05 03:00:46;;;;;;;17.48;9.02;;;0.20;99.90;;;;;;5096085;28;20097;-55
2023/12/05 03:03:12;;;;;;;18.85;9.45;;;0.20;99.90;;;;;;5095857;28;20052;-55
2023/12/05 03:05:38;;;;;;;17.05;9.48;;;0.20;99.90;;;;;;5096016;28;20112;-56
2023/12/05 03:08:04;;;;;;;18.35;9.25;;;0.20;99.90;;;;;;5095918;28;20059;-56
2023/12/05 03:10:29;;;;;;;15.60;9.00;;;0.20;99.90;;;;;;5096023;28;20470;-55
2023/12/05 03:12:55;;;;;;;18.38;10.07;;;0.10;99.90;;;;;;5095356;28;20048;-54
2023/12/05 03:15:20;;;;;;;17.02;8.77;;;0.20;99.90;;;;;;5095834;28;20044;-56
2023/12/05 03:17:46;;;;;;;16.33;9.18;;;0.20;99.90;;;;;;5095713;28;20055;-54
2023/12/05 03:20:12;;;;;;;19.02;10.43;;;0.20;99.90;;;;;;5094868;28;20514;-55
2023/12/05 03:22:37;;;;;;;17.20;9.02;;;0.20;99.90;;;;;;5095496;28;20134;-54
2023/12/05 03:25:03;;;;;;;18.65;10.23;;;0.20;99.90;;;;;;5095570;28;20040;-55
2023/12/05 03:27:29;;;;;;;19.58;9.80;;;0.10;99.90;;;;;;5095615;28;20044;-51
2023/12/05 03:29:55;;;;;;;18.75;10.02;;;0.10;99.90;;;;;;5095494;28;20379;-54
2023/12/05 03:32:20;;;;;;;18.52;9.73;;;0.20;99.90;;;;;;5095406;28;20146;-54
2023/12/05 03:34:49;;;;;;;16.83;8.98;;;0.10;99.90;;;;;;5095437;28;20497;-55
2023/12/05 03:37:15;;;;;;;18.25;9.70;;;0.10;99.90;;;;;;5095150;28;20082;-54
2023/12/05 03:39:40;;;;;;;18.00;10.27;;;0.10;99.90;;;;;;5094270;28;20402;-54
2023/12/05 03:42:06;;;;;;;18.08;9.98;;;0.10;99.90;;;;;;5095333;28;20052;-54
2023/12/05 03:44:32;;;;;;;20.45;10.85;;;0.10;99.90;;;;;;5095137;28;20101;-55
2023/12/05 03:46:57;;;;;;;20.55;11.23;;;0.10;99.90;;;;;;5095050;28;20055;-55
2023/12/05 03:49:23;;;;;;;19.25;10.25;;;0.10;99.90;;;;;;5095184;28;20071;-54
2023/12/05 03:51:49;;;;;;;20.70;10.18;;;0.10;99.90;;;;;;5095056;28;20044;-54
2023/12/05 03:54:15;;;;;;;20.60;11.07;;;0.10;99.90;;;;;;5095555;28;20392;-55
2023/12/05 03:56:41;;;;;;;18.83;11.00;;;0.00;99.90;;;;;;5094046;28;20055;-55
2023/12/05 03:59:07;;;;;;;19.80;10.40;;;0.00;99.90;;;;;;5094931;28;20089;-52
2023/12/05 04:01:32;;;;;;;19.52;10.82;;;0.00;99.90;;;;;;5094837;28;20487;-54
2023/12/05 04:03:58;;;;;;;20.13;10.50;;;0.10;99.90;;;;;;5094336;28;20181;-53
2023/12/05 04:06:24;;;;;;;20.40;10.63;;;0.00;99.90;;;;;;5094713;28;20059;-54
2023/12/05 04:08:50;;;;;;;21.67;10.77;;;0.00;99.90;;;;;;5094811;28;20044;-52
2023/12/05 04:11:16;;;;;;;19.58;11.13;;;0.00;99.90;;;;;;5095128;28;20051;-52
2023/12/05 04:13:42;;;;;;;19.45;9.35;;;0.00;99.90;;;;;;5093474;28;20364;-52
2023/12/05 04:16:08;;;;;;;20.10;11.30;;;0.20;99.90;;;;;;5094539;28;20047;-52
2023/12/05 04:18:34;;;;;;;18.70;10.10;;;0.00;99.90;;;;;;5094586;28;20566;-52
2023/12/05 04:20:59;;;;;;;20.20;10.60;;;0.00;99.90;;;;;;5094408;28;20083;-54
2023/12/05 04:23:25;;;;;;;18.58;9.70;;;0.00;99.90;;;;;;5093274;28;20478;-53
2023/12/05 04:25:51;;;;;;;20.70;10.35;;;0.00;99.90;;;;;;5093633;28;20052;-53
2023/12/05 04:28:16;;;;;;;21.15;11.43;;;0.00;99.90;;;;;;5094382;28;20482;-53
2023/12/05 04:30:42;;;;;;;20.95;9.82;;;0.00;99.90;;;;;;5094179;28;20044;-53
2023/12/05 04:33:08;;;;;;;19.15;10.57;;;0.00;99.90;;;;;;5094252;28;20444;-50
2023/12/05 04:35:35;;;;;;;17.92;9.82;;;0.00;99.90;;;;;;5094163;28;20035;-53
2023/12/05 04:38:00;;;;;;;;;;;0.00;99.90;;;;;;5095093;28;20044;-53
2023/12/05 04:40:26;;;;;;;17.42;9.40;;;0.00;99.90;;;;;;5094187;28;20279;-53
2023/12/05 04:42:52;;;;;;;19.63;10.45;;;0.00;99.90;;;;;;5093033;28;20040;-53
2023/12/05 04:45:17;;;;;;;17.80;9.70;;;0.00;99.90;;;;;;5094117;28;20131;-54
2023/12/05 04:47:43;;;;;;;18.85;10.02;;;0.00;99.90;;;;;;5092913;28;20047;-53
2023/12/05 04:50:09;;;;;;;17.98;9.40;;;0.10;99.90;;;;;;5093721;28;20264;-53
2023/12/05 04:52:35;;;;;;;17.52;9.93;;;0.00;99.90;;;;;;5094008;28;20044;-52
2023/12/05 04:55:01;;;;;;;18.10;9.65;;;0.00;99.90;;;;;;5094002;28;20087;-53
2023/12/05 04:57:27;;;;;;;19.00;9.93;;;0.00;99.90;;;;;;5094045;28;20494;-54
2023/12/05 04:59:53;;;;;;;18.45;10.45;;;0.00;99.90;;;;;;5093970;28;20130;-53
2023/12/05 05:02:18;;;;;;;20.15;10.40;;;0.00;99.90;;;;;;5075935;28;20403;-51
2023/12/05 05:04:44;;;;;;;18.27;11.05;;;0.10;99.90;;;;;;5093440;28;20062;-53
2023/12/05 05:07:11;;;;;;;21.30;10.05;;;0.10;99.90;;;;;;5093991;28;20087;-53
2023/12/05 05:09:39;;;;;;;21.77;10.40;;;0.10;99.90;;;;;;5093788;28;20056;-53
2023/12/05 05:12:08;;;;;;;20.23;11.18;;;0.10;99.90;;;;;;5093900;28;20043;-52
2023/12/05 05:14:36;;;;;;;17.92;10.10;;;0.10;99.90;;;;;;5093593;28;20549;-53
2023/12/05 05:17:03;;;;;;;23.70;11.95;;;0.10;99.90;;;;;;5093608;28;20475;-54
2023/12/05 05:19:30;;;;;;;19.52;11.30;;;0.10;99.90;;;;;;5093533;28;20054;-54
2023/12/05 05:21:56;;;;;;;21.63;11.13;;;0.10;99.90;;;;;;5093776;28;20471;-54
2023/12/05 05:24:22;;;;;;;22.33;11.52;;;0.10;99.90;;;;;;5093878;28;20042;-54
2023/12/05 05:26:47;;;;;;;18.75;10.60;;;0.10;99.90;;;;;;5093708;28;20051;-53
2023/12/05 05:29:13;;;;;;;21.52;11.00;;;0.10;99.90;;;;;;5093575;28;20054;-53
2023/12/05 05:31:38;;;;;;;22.77;11.45;;;0.10;99.90;;;;;;5093480;28;20048;-54
2023/12/05 05:34:04;;;;;;;16.85;10.02;;;0.10;99.90;;;;;;5093289;28;20058;-53
2023/12/05 05:36:30;;;;;;;19.67;10.82;;;0.10;99.90;;;;;;5095649;28;20048;-53
2023/12/05 05:38:55;;;;;;;18.63;9.80;;;0.10;99.90;;;;;;5097715;28;20400;-52
2023/12/05 05:41:21;;;;;;;19.38;10.00;;;0.10;99.90;;;;;;5097724;28;20495;-52
2023/12/05 05:43:47;;;;;;;18.55;10.45;;;0.10;99.90;;;;;;5096325;28;20552;-52
2023/12/05 05:46:13;;;;;;;23.05;11.35;;;0.10;99.90;;;;;;5097279;28;20097;-53
2023/12/05 05:48:38;;;;;;;21.40;11.15;;;0.00;99.90;;;;;;5096343;28;20091;-50
2023/12/05 05:51:05;;;;;;;21.77;11.25;;;0.00;99.90;;;;;;5097603;28;20043;-54
2023/12/05 05:53:31;;;;;;;22.50;11.38;;;0.10;99.90;;;;;;5097408;28;20076;-52
2023/12/05 05:56:00;;;;;;;20.77;10.68;;;0.10;99.90;;;;;;5097492;28;20552;-54
2023/12/05 05:58:25;;;;;;;19.10;10.60;;;0.00;99.90;;;;;;5097509;28;20505;-53
2023/12/05 06:00:51;;;;;;;22.63;12.68;;;0.00;99.90;;;;;;5097098;28;20090;-53
2023/12/05 06:03:17;;;;;;;23.85;11.70;;;0.00;99.90;;;;;;5129421;27;20085;-54
2023/12/05 06:05:42;;;;;;;22.70;11.60;;;0.10;99.90;;;;;;5097501;28;20056;-52
2023/12/05 06:08:08;;;;;;;23.48;11.90;;;0.00;99.90;;;;;;5097226;28;20372;-53
2023/12/05 06:10:35;;;;;;;22.13;11.95;;;0.00;99.90;;;;;;5096960;28;20040;-54
2023/12/05 06:13:01;;;;;;;24.40;12.75;;;0.00;99.90;;;;;;5129846;27;20044;-53
2023/12/05 06:15:26;;;;;;;23.15;11.73;;;0.00;99.90;;;;;;5096790;28;20081;-53
2023/12/05 06:17:52;;;;;;;24.58;13.00;;;0.00;99.90;;;;;;5096398;28;20056;-53
2023/12/05 06:20:18;;;;;;;21.88;11.40;;;0.00;99.90;;;;;;5096820;28;20044;-51
2023/12/05 06:22:44;;;;;;;21.58;11.77;;;0.00;99.90;;;;;;5096440;28;20059;-53
2023/12/05 06:25:09;;;;;;;21.40;11.50;;;0.00;99.90;;;;;;5096332;28;20036;-52
2023/12/05 06:27:35;;;;;;;25.45;12.98;;;0.00;99.90;;;;;;5096338;28;20040;-52
2023/12/05 06:30:01;;;;;;;22.50;11.85;;;0.00;99.90;;;;;;5096452;28;20131;-51
2023/12/05 06:32:26;;;;;;;24.65;12.38;;;0.00;99.90;;;;;;5096653;28;20044;-53
2023/12/05 06:34:52;;;;;;;22.52;10.80;;;0.00;99.90;;;;;;5096093;28;20364;-51
2023/12/05 06:37:18;;;;;;;21.92;11.40;;;0.00;99.90;;;;;;5096622;28;20478;-53
2023/12/05 06:39:43;;;;;;;22.13;11.52;;;0.00;99.90;;;;;;5096674;28;20086;-51
2023/12/05 06:42:09;;;;;;;26.25;11.88;;;0.00;99.90;;;;;;5096423;28;20043;-52
2023/12/05 06:44:35;;;;;;;25.02;11.63;;;0.00;99.90;;;;;;5096152;28;20079;-51
2023/12/05 06:47:00;;;;;;;21.88;11.20;;;0.00;99.90;;;;;;5095846;28;20048;-55
2023/12/05 06:49:26;;;;;;;23.10;10.95;;;0.00;99.90;;;;;;5096008;28;20040;-52
2023/12/05 06:51:56;;;;;;;22.80;12.05;;;-0.10;99.90;;;;;;5112580;28;20047;-53
2023/12/05 06:54:22;;;;;;;23.40;11.40;;;0.10;99.90;;;;;;5096412;28;20040;-50
2023/12/05 06:56:48;;;;;;;21.83;10.57;;;0.00;99.90;;;;;;5096143;28;20517;-52
2023/12/05 06:59:14;;;;;;;22.95;11.45;;;0.00;99.90;;;;;;5096212;28;20052;-51
2023/12/05 07:01:40;;;;;;;21.02;10.60;;;-0.10;99.90;;;;;;5095869;28;20086;-50
2023/12/05 07:04:07;;;;;;;25.55;11.55;;;0.10;99.90;;;;;;5096242;28;20518;-52
2023/12/05 07:06:32;;;;;;;24.87;12.30;;;0.00;99.90;;;;;;5096032;28;20064;-57
2023/12/05 07:08:58;;;;;;;23.67;12.00;;;0.00;99.90;;;;;;5095985;28;20286;-54
2023/12/05 07:11:27;;;;;;;24.00;11.80;;;0.00;99.90;;;;;;5095782;28;20131;-52
2023/12/05 07:13:54;;;;;;;23.73;11.68;;;0.00;99.90;;;;;;5095755;28;20048;-51
2023/12/05 07:16:19;;;;;;;22.80;11.30;;;0.00;99.90;;;;;;5094412;28;20083;-53
2023/12/05 07:18:45;;;;;;;20.35;10.13;;;0.00;99.90;;;;;;5095617;28;20054;-52
2023/12/05 07:21:11;;;;;;;24.63;11.13;;;0.00;99.90;;;;;;5094997;28;20130;-53
2023/12/05 07:23:37;;;;;;;21.35;11.65;;;0.00;99.90;;;;;;5128616;27;20040;-52
2023/12/05 07:26:03;;;;;;;24.52;12.23;;;0.00;99.90;;;;;;5094608;28;20078;-51
2023/12/05 07:28:29;;;;;;;19.33;9.95;;;0.00;99.90;;;;;;5095556;28;20152;-50
2023/12/05 07:30:55;;;;;;;23.00;11.93;;;0.00;99.90;;;;;;5095331;28;20055;-52
2023/12/05 07:33:21;;;;;;;24.52;11.20;;;0.00;99.90;;;;;;5095561;28;20080;-53
2023/12/05 07:35:47;;;;;;;23.85;10.98;;;0.10;99.90;;;;;;5095434;28;20048;-52
2023/12/05 07:38:12;;;;;;;22.92;11.50;;;0.00;99.90;;;;;;5095238;28;20051;-52
2023/12/05 07:40:38;;;;;;;24.23;11.15;;;0.00;99.90;;;;;;5128655;27;20135;-53
2023/12/05 07:43:04;;;;;;;21.48;10.73;;;0.00;99.90;;;;;;5095185;28;20044;-52
2023/12/05 07:45:30;;;;;;;22.48;11.60;;;0.00;99.90;;;;;;5095094;28;20051;-53
2023/12/05 07:47:56;;;;;;;20.95;11.35;;;0.00;99.90;;;;;;5095237;28;20047;-53
2023/12/05 07:50:22;;;;;;;23.10;11.45;;;0.00;99.90;;;;;;5095260;28;20105;-52
2023/12/05 07:52:49;;;;;;;20.33;10.70;;;0.00;99.90;;;;;;5095179;28;20040;-52
2023/12/05 07:55:18;;;;;;;22.48;11.15;;;0.00;99.90;;;;;;5095132;28;20040;-52
2023/12/05 07:57:46;;;;;;;22.67;11.00;;;0.00;99.90;;;;;;5094917;28;20039;-52
2023/12/05 08:00:16;;;;;;;22.20;10.18;;;0.00;99.90;;;;;;5094837;28;20506;-49
2023/12/05 08:02:46;;;;;;;21.98;10.32;;;-0.10;99.90;;;;;;5095257;28;20491;-49
2023/12/05 08:05:12;;;;;;;23.27;10.95;;;0.00;99.90;;;;;;5095064;28;20048;-53
2023/12/05 08:07:39;;;;;;;22.17;11.05;;;0.00;99.90;;;;;;5094885;28;20059;-52
2023/12/05 08:10:08;;;;;;;19.48;10.50;;;0.00;99.90;;;;;;5094761;28;20091;-51
2023/12/05 08:12:34;;;;;;;24.13;10.98;;;0.00;99.90;;;;;;5094652;28;20044;-52
2023/12/05 08:15:01;;;;;;;22.50;10.55;;;0.00;99.90;;;;;;5094770;28;20086;-50
2023/12/05 08:17:26;;;;;;;24.80;10.85;;;0.00;99.90;;;;;;5094711;28;20136;-49
2023/12/05 08:19:53;;;;;;;20.42;10.43;;;0.00;99.90;;;;;;5094447;28;20134;-49
2023/12/05 08:22:18;;;;;;;20.52;10.43;;;0.00;99.90;;;;;;5094715;28;20447;-50
2023/12/05 08:24:44;;;;;;;20.95;10.95;;;0.00;99.90;;;;;;5094303;28;20109;-52
2023/12/05 08:27:10;;;;;;;22.60;11.13;;;-0.10;99.90;;;;;;5094482;28;20044;-51
2023/12/05 08:29:35;;;;;;;23.13;11.27;;;0.00;99.90;;;;;;5094523;28;20487;-49
2023/12/05 08:32:02;;;;;;;22.73;11.52;;;0.00;99.90;;;;;;5093661;28;20044;-49
2023/12/05 08:34:28;;;;;;;23.70;11.35;;;0.00;99.90;;;;;;5094496;28;20105;-51
2023/12/05 08:36:54;;;;;;;19.80;10.52;;;0.00;99.90;;;;;;5127532;27;20474;-49
2023/12/05 08:39:19;;;;;;;18.23;10.20;;;0.00;99.90;;;;;;5094334;28;20089;-50
2023/12/05 08:41:45;;;;;;;21.92;11.07;;;0.00;99.90;;;;;;5093994;28;20058;-49
2023/12/05 08:44:11;;;;;;;21.65;11.13;;;0.00;99.90;;;;;;5094187;28;20131;-51
2023/12/05 08:46:37;;;;;;;21.17;10.15;;;0.10;99.90;;;;;;5094182;28;20043;-51
2023/12/05 08:49:03;;;;;;;22.02;11.00;;;0.00;99.90;;;;;;5094108;28;20052;-49
2023/12/05 08:51:29;;;;;;;22.05;11.32;;;0.00;99.90;;;;;;5094244;28;20044;-51
2023/12/05 08:53:55;;;;;;;19.67;10.25;;;0.00;99.90;;;;;;5093987;28;20048;-50
2023/12/05 08:56:20;;;;;;;21.20;10.70;;;0.00;99.90;;;;;;5092778;28;20083;-48
2023/12/05 08:58:46;;;;;;;21.17;11.17;;;0.00;99.90;;;;;;5094216;28;20152;-49
2023/12/05 09:01:12;;;;;;;19.77;11.05;;;0.10;99.90;;;;;;5094056;28;20792;-51
2023/12/05 09:03:38;;;;;;;19.65;10.50;;;0.10;99.90;;;;;;5093845;28;20143;-49
2023/12/05 09:06:04;;;;;;;23.33;10.90;;;0.10;99.90;;;;;;5093757;28;20056;-50
2023/12/05 09:08:29;;;;;;;20.58;10.98;;;0.00;99.90;;;;;;5093668;28;20044;-50
2023/12/05 09:10:57;;;;;;;18.92;10.00;;;0.10;99.90;;;;;;5093481;28;20054;-52
2023/12/05 09:13:23;;;;;;;22.35;11.32;;;0.10;99.90;;;;;;5092876;28;20062;-50
2023/12/05 09:15:49;;;;;;;21.38;11.25;;;0.10;99.90;;;;;;5093822;28;20052;-49
2023/12/05 09:18:15;;;;;;;20.63;10.90;;;0.10;99.90;;;;;;5092650;28;20044;-52
2023/12/05 09:20:41;;;;;;;19.88;10.35;;;0.10;99.90;;;;;;5126955;27;20052;-51
2023/12/05 09:23:07;;;;;;;20.17;10.47;;;0.10;99.90;;;;;;5093512;28;20501;-50
2023/12/05 09:25:33;;;;;;;20.27;10.35;;;0.10;99.90;;;;;;5093577;28;20768;-50
2023/12/05 09:27:58;;;;;;;17.52;9.98;;;0.10;99.90;;;;;;5093711;28;20055;-49
2023/12/05 09:30:25;;;;;;;22.40;11.05;;;0.10;99.90;;;;;;5093917;28;20036;-49
2023/12/05 09:32:50;;;;;;;19.70;10.67;;;0.10;99.90;;;;;;5093659;28;20056;-51
2023/12/05 09:35:16;;;;;;;21.92;10.95;;;0.10;99.90;;;;;;5093455;28;20156;-50
2023/12/05 09:37:42;;;;;;;20.88;9.98;;;0.10;99.90;;;;;;5093657;28;20067;-49
2023/12/05 09:40:09;;;;;;;20.90;11.60;;;0.10;99.90;;;;;;5093519;28;20056;-49
2023/12/05 09:42:35;;;;;;;21.00;10.52;;;0.20;99.90;;;;;;5093581;28;20089;-51
2023/12/05 09:45:07;;;;;;;23.30;10.80;;;0.10;99.90;;;;;;5093563;28;20097;-50
2023/12/05 09:47:35;;;;;;;20.00;10.50;;;0.20;99.90;;;;;;5093860;28;20056;-49
2023/12/05 09:50:03;;;;;;;18.45;9.45;;;0.20;99.90;;;;;;5093337;28;20055;-52
2023/12/05 09:52:29;;;;;;;21.67;10.32;;;0.10;99.90;;;;;;5093297;28;20483;-52
2023/12/05 09:54:55;;;;;;;24.30;11.87;;;0.20;99.90;;;;;;5093526;28;20522;-49
2023/12/05 09:57:21;;;;;;;20.05;10.55;;;0.20;99.90;;;;;;5093316;28;20128;-50
2023/12/05 09:59:47;;;;;;;20.35;9.88;;;0.20;99.90;;;;;;5093557;28;20388;-52
2023/12/05 10:02:13;;;;;;;19.75;10.68;;;0.20;99.90;;;;;;5093451;28;20055;-52
2023/12/05 10:04:43;;;;;;;22.23;11.67;;;0.20;99.90;;;;;;5092927;28;20048;-49
2023/12/05 10:07:12;;;;;;;22.00;10.57;;;0.20;99.90;;;;;;5091935;28;20284;-48
2023/12/05 10:09:43;;;;;;;22.48;11.38;;;0.20;99.90;;;;;;5093344;28;20482;-49
2023/12/05 10:12:10;;;;;;;21.25;11.95;;;0.20;99.90;;;;;;5093222;28;20047;-48
2023/12/05 10:14:37;;;;;;;22.38;11.40;;;0.20;99.90;;;;;;5093294;28;20036;-50
2023/12/05 10:17:04;;;;;;;22.45;11.05;;;0.40;99.90;;;;;;5093262;28;20536;-49
2023/12/05 10:19:30;;;;;;;22.20;11.23;;;0.30;99.90;;;;;;5093224;28;20041;-49
2023/12/05 10:21:57;;;;;;;21.70;10.75;;;0.30;99.90;;;;;;5091964;28;20540;-49
2023/12/05 10:24:23;;;;;;;19.95;10.57;;;0.30;99.90;;;;;;5096253;28;20043;-50
2023/12/05 10:26:49;;;;;;;22.45;11.25;;;0.30;99.90;;;;;;5095897;28;20059;-49
2023/12/05 10:29:16;;;;;;;24.10;12.13;;;0.30;99.90;;;;;;5097174;28;20044;-52
2023/12/05 10:31:42;;;;;;;23.65;11.38;;;0.30;99.90;;;;;;5095753;28;20048;-52
2023/12/05 10:34:11;;;;;;;21.15;10.95;;;0.40;99.90;;;;;;5096673;28;20124;-52
2023/12/05 10:36:37;;;;;;;21.38;10.88;;;0.40;99.90;;;;;;5096389;28;20080;-52
2023/12/05 10:39:06;;;;;;;20.98;11.13;;;0.40;99.90;;;;;;5097206;28;20043;-51
2023/12/05 10:41:31;;;;;;;23.85;11.63;;;0.40;99.90;;;;;;5096588;28;20044;-51
2023/12/05 10:43:57;;;;;;;21.40;10.73;;;0.30;99.90;;;;;;5096664;28;20036;-51
2023/12/05 10:46:26;;;;;;;19.83;10.35;;;0.40;99.90;;;;;;5096506;28;20055;-51
2023/12/05 10:48:54;;;;;;;23.67;13.10;;;0.40;99.90;;;;;;5096148;28;20043;-51
2023/12/05 10:51:19;;;;;;;;;;;0.40;99.90;;;;;;5096848;28;20066;-50
2023/12/05 10:53:45;;;;;;;23.55;11.73;;;0.30;99.90;;;;;;5096382;28;20482;-49
2023/12/05 10:56:15;;;;;;;24.70;12.23;;;0.40;99.90;;;;;;5095342;28;20054;-51
2023/12/05 10:58:42;;;;;;;24.55;11.98;;;0.30;99.90;;;;;;5096288;28;20081;-51
2023/12/05 11:01:12;;;;;;;25.20;11.55;;;0.30;99.90;;;;;;5096195;28;20047;-49
2023/12/05 11:03:38;;;;;;;23.23;11.27;;;0.30;99.90;;;;;;5095773;28;20060;-49
2023/12/05 11:06:08;;;;;;;28.75;13.55;;;0.30;99.90;;;;;;5096136;28;20052;-51
2023/12/05 11:08:35;;;;;;;26.45;11.73;;;0.30;99.90;;;;;;5096159;28;20048;-49
2023/12/05 11:11:04;;;;;;;;;;;0.30;99.90;;;;;;5096399;28;20051;-49
2023/12/05 11:13:34;;;;;;;23.23;11.23;;;0.30;99.90;;;;;;5095993;28;20008;-50
2023/12/05 11:16:24;;;;;;;26.40;12.25;;;0.30;99.90;;;;;;5095878;28;20048;-48
2023/12/05 11:19:10;;;;;;;23.88;11.70;;;0.20;99.90;;;;;;5096150;28;20095;-48
2023/12/05 11:21:54;;;;;;;28.48;12.90;;;0.20;99.90;;;;;;5095772;28;20094;-47
2023/12/05 11:24:47;;;;;;;25.08;12.20;;;0.20;99.90;;;;;;5095578;28;20050;-48
2023/12/05 11:27:25;;;;;;;23.85;12.07;;;0.20;99.90;;;;;;5094729;28;20044;-49
2023/12/05 11:30:17;;;;;;;26.15;12.30;;;0.20;99.90;;;;;;5095546;28;20047;-49
2023/12/05 11:33:18;;;;;;;26.50;12.63;;;0.20;99.90;;;;;;5095499;28;20044;-49
2023/12/05 11:35:47;;;;;;;26.15;12.90;;;0.20;99.90;;;;;;5095567;28;20044;-48
2023/12/05 11:38:16;;;;;;;24.25;11.27;;;0.20;99.90;;;;;;5095365;28;20059;-48
2023/12/05 11:40:41;;;;;;;27.20;12.52;;;0.20;99.90;;;;;;5095409;28;20112;-48
2023/12/05 11:43:08;;;;;;;28.55;13.05;;;0.20;99.90;;;;;;5095284;28;20048;-48
2023/12/05 11:45:38;;;;;;;25.25;12.68;;;0.20;99.90;;;;;;5095221;28;20046;-48
2023/12/05 11:48:04;;;;;;;24.65;12.50;;;0.20;99.90;;;;;;5095372;28;20514;-48
2023/12/05 11:50:43;;;;;;;24.08;12.07;;;0.30;99.90;;;;;;5095594;28;20048;-48
2023/12/05 11:53:14;;;;;;;26.10;12.88;;;0.20;99.90;;;;;;5095198;28;20051;-48
2023/12/05 11:55:42;;;;;;;25.13;12.88;;;0.20;99.90;;;;;;5095110;28;20043;-49
2023/12/05 11:58:30;;;;;;;23.75;12.30;;;0.20;99.90;;;;;;5095161;28;20050;-48
2023/12/05 12:01:03;;;;;;;25.08;12.48;;;0.20;99.90;;;;;;5095083;28;20040;-48
2023/12/05 12:03:50;;;;;;;26.35;13.05;;;0.20;99.90;;;;;;5093742;28;20113;-48
2023/12/05 12:06:18;;;;;;;25.55;12.82;;;0.20;99.90;;;;;;5095227;28;20048;-49
2023/12/05 12:08:52;;;;;;;22.98;12.80;;;0.30;99.90;;;;;;5094906;28;20080;-48
2023/12/05 12:11:20;;;;;;;29.73;13.55;;;0.20;99.90;;;;;;5095193;28;20046;-48
2023/12/05 12:13:48;;;;;;;26.95;13.75;;;0.30;99.90;;;;;;5094771;28;20395;-48
2023/12/05 12:16:19;;;;;;;24.15;13.10;;;0.30;99.90;;;;;;5094743;28;20479;-49
2023/12/05 12:18:45;;;;;;;27.85;13.40;;;0.30;99.90;;;;;;5094518;28;20039;-51
2023/12/05 12:21:11;;;;;;;26.25;12.63;;;0.30;99.90;;;;;;5095113;28;20070;-49
2023/12/05 12:23:37;;;;;;;24.85;12.38;;;0.30;99.90;;;;;;5094730;28;20040;-49
2023/12/05 12:26:08;;;;;;;28.40;13.63;;;0.30;99.90;;;;;;5093597;28;20052;-49
2023/12/05 12:28:33;;;;;;;28.83;13.48;;;0.30;99.90;;;;;;5094630;28;20084;-52
2023/12/05 12:31:00;;;;;;;29.08;14.05;;;0.30;99.90;;;;;;5094336;28;20075;-48
2023/12/05 12:33:46;;;;;;;26.25;13.23;;;0.30;99.90;;;;;;5094474;28;20118;-49
2023/12/05 12:36:12;;;;;;;26.73;13.25;;;0.30;99.90;;;;;;5094420;28;20048;-52
2023/12/05 12:38:38;;;;;;;27.83;12.65;;;0.40;99.90;;;;;;5094385;28;20055;-52
2023/12/05 12:41:04;;;;;;;28.33;12.95;;;0.30;99.90;;;;;;5094205;28;20048;-48